sensor_id;sensor_type;location;lat;lon;timestamp;P1;durP1;ratioP1;P2;durP2;ratioP2
12886;SDS011;6511;49.746;6.094;2023-05-14T00:00:48;4.10;;;2.87;;
12886;SDS011;6511;49.746;6.094;2023-05-14T00:03:14;4.28;;;3.00;;
12886;SDS011;6511;49.746;6.094;2023-05-14T00:05:40;3.37;;;2.80;;
12886;SDS011;6511;49.746;6.094;2023-05-14T00:08:05;4.43;;;3.00;;
12886;SDS011;6511;49.746;6.094;2023-05-14T00:10:31;3.33;;;2.70;;
12886;SDS011;6511;49.746;6.094;2023-05-14T00:12:56;4.00;;;2.80;;
12886;SDS011;6511;49.746;6.094;2023-05-14T00:15:22;4.03;;;2.83;;
12886;SDS011;6511;49.746;6.094;2023-05-14T00:17:48;4.15;;;2.88;;
12886;SDS011;6511;49.746;6.094;2023-05-14T00:20:13;3.53;;;2.70;;
12886;SDS011;6511;49.746;6.094;2023-05-14T00:22:39;4.37;;;2.90;;
12886;SDS011;6511;49.746;6.094;2023-05-14T00:25:05;4.10;;;2.83;;
12886;SDS011;6511;49.746;6.094;2023-05-14T00:27:32;3.83;;;2.80;;
12886;SDS011;6511;49.746;6.094;2023-05-14T00:29:58;3.75;;;2.75;;
12886;SDS011;6511;49.746;6.094;2023-05-14T00:32:23;3.28;;;2.70;;
12886;SDS011;6511;49.746;6.094;2023-05-14T00:34:49;4.30;;;2.77;;
12886;SDS011;6511;49.746;6.094;2023-05-14T00:37:14;3.37;;;2.80;;
12886;SDS011;6511;49.746;6.094;2023-05-14T00:39:40;3.38;;;2.80;;
12886;SDS011;6511;49.746;6.094;2023-05-14T00:42:06;3.00;;;2.53;;
12886;SDS011;6511;49.746;6.094;2023-05-14T00:44:31;4.00;;;2.60;;
12886;SDS011;6511;49.746;6.094;2023-05-14T00:46:57;2.93;;;2.57;;
12886;SDS011;6511;49.746;6.094;2023-05-14T00:49:24;3.50;;;2.72;;
12886;SDS011;6511;49.746;6.094;2023-05-14T00:51:50;3.77;;;2.73;;
12886;SDS011;6511;49.746;6.094;2023-05-14T00:54:16;3.40;;;2.60;;
12886;SDS011;6511;49.746;6.094;2023-05-14T00:56:46;4.40;;;2.90;;
12886;SDS011;6511;49.746;6.094;2023-05-14T00:59:12;3.42;;;2.50;;
12886;SDS011;6511;49.746;6.094;2023-05-14T01:01:38;3.03;;;2.40;;
12886;SDS011;6511;49.746;6.094;2023-05-14T01:04:04;4.20;;;3.10;;
12886;SDS011;6511;49.746;6.094;2023-05-14T01:09:23;4.53;;;3.20;;
12886;SDS011;6511;49.746;6.094;2023-05-14T01:17:21;4.82;;;3.13;;
12886;SDS011;6511;49.746;6.094;2023-05-14T01:19:52;3.88;;;2.80;;
12886;SDS011;6511;49.746;6.094;2023-05-14T01:22:20;3.15;;;2.53;;
12886;SDS011;6511;49.746;6.094;2023-05-14T01:24:46;3.70;;;2.30;;
12886;SDS011;6511;49.746;6.094;2023-05-14T01:27:16;3.35;;;2.25;;
12886;SDS011;6511;49.746;6.094;2023-05-14T01:29:52;2.67;;;2.30;;
12886;SDS011;6511;49.746;6.094;2023-05-14T01:32:33;3.10;;;2.43;;
12886;SDS011;6511;49.746;6.094;2023-05-14T01:35:00;3.05;;;2.17;;
12886;SDS011;6511;49.746;6.094;2023-05-14T01:37:26;3.70;;;2.67;;
12886;SDS011;6511;49.746;6.094;2023-05-14T01:39:54;2.90;;;2.20;;
12886;SDS011;6511;49.746;6.094;2023-05-14T01:42:21;4.07;;;2.67;;
12886;SDS011;6511;49.746;6.094;2023-05-14T01:44:47;4.30;;;2.40;;
12886;SDS011;6511;49.746;6.094;2023-05-14T01:47:13;3.88;;;2.80;;
12886;SDS011;6511;49.746;6.094;2023-05-14T01:49:39;4.17;;;3.00;;
12886;SDS011;6511;49.746;6.094;2023-05-14T01:52:05;3.47;;;2.78;;
12886;SDS011;6511;49.746;6.094;2023-05-14T01:54:32;3.90;;;2.70;;
12886;SDS011;6511;49.746;6.094;2023-05-14T01:56:58;3.30;;;2.67;;
12886;SDS011;6511;49.746;6.094;2023-05-14T01:59:23;3.67;;;2.85;;
12886;SDS011;6511;49.746;6.094;2023-05-14T02:01:49;4.20;;;2.97;;
12886;SDS011;6511;49.746;6.094;2023-05-14T02:04:14;3.73;;;2.73;;
12886;SDS011;6511;49.746;6.094;2023-05-14T02:06:40;2.75;;;2.30;;
12886;SDS011;6511;49.746;6.094;2023-05-14T02:09:06;4.10;;;2.50;;
12886;SDS011;6511;49.746;6.094;2023-05-14T02:11:31;3.33;;;2.30;;
12886;SDS011;6511;49.746;6.094;2023-05-14T02:13:57;3.00;;;2.35;;
12886;SDS011;6511;49.746;6.094;2023-05-14T02:16:23;3.00;;;2.30;;
12886;SDS011;6511;49.746;6.094;2023-05-14T02:18:48;2.27;;;2.07;;
12886;SDS011;6511;49.746;6.094;2023-05-14T02:21:14;2.28;;;2.00;;
12886;SDS011;6511;49.746;6.094;2023-05-14T02:23:39;3.07;;;2.10;;
12886;SDS011;6511;49.746;6.094;2023-05-14T02:26:05;4.47;;;1.90;;
12886;SDS011;6511;49.746;6.094;2023-05-14T02:28:31;3.20;;;2.10;;
12886;SDS011;6511;49.746;6.094;2023-05-14T02:30:59;2.80;;;2.27;;
12886;SDS011;6511;49.746;6.094;2023-05-14T02:33:25;2.47;;;1.92;;
12886;SDS011;6511;49.746;6.094;2023-05-14T02:35:51;3.63;;;2.55;;
12886;SDS011;6511;49.746;6.094;2023-05-14T02:38:17;2.73;;;2.03;;
12886;SDS011;6511;49.746;6.094;2023-05-14T02:40:44;2.80;;;2.10;;
12886;SDS011;6511;49.746;6.094;2023-05-14T02:43:09;2.70;;;1.70;;
12886;SDS011;6511;49.746;6.094;2023-05-14T02:45:35;2.77;;;2.03;;
12886;SDS011;6511;49.746;6.094;2023-05-14T02:48:01;2.25;;;2.00;;
12886;SDS011;6511;49.746;6.094;2023-05-14T02:50:26;2.70;;;2.10;;
12886;SDS011;6511;49.746;6.094;2023-05-14T02:52:52;2.80;;;2.10;;
12886;SDS011;6511;49.746;6.094;2023-05-14T02:55:17;2.65;;;2.13;;
12886;SDS011;6511;49.746;6.094;2023-05-14T02:57:43;2.80;;;2.20;;
12886;SDS011;6511;49.746;6.094;2023-05-14T03:00:09;2.50;;;2.13;;
12886;SDS011;6511;49.746;6.094;2023-05-14T03:02:35;3.03;;;2.00;;
12886;SDS011;6511;49.746;6.094;2023-05-14T03:05:01;2.83;;;2.13;;
12886;SDS011;6511;49.746;6.094;2023-05-14T03:07:27;2.55;;;2.22;;
12886;SDS011;6511;49.746;6.094;2023-05-14T03:09:53;2.00;;;1.80;;
12886;SDS011;6511;49.746;6.094;2023-05-14T03:12:18;4.15;;;1.70;;
12886;SDS011;6511;49.746;6.094;2023-05-14T03:14:44;3.10;;;2.00;;
12886;SDS011;6511;49.746;6.094;2023-05-14T03:17:10;3.17;;;2.20;;
12886;SDS011;6511;49.746;6.094;2023-05-14T03:19:36;2.72;;;2.47;;
12886;SDS011;6511;49.746;6.094;2023-05-14T03:22:02;4.27;;;2.73;;
12886;SDS011;6511;49.746;6.094;2023-05-14T03:24:27;3.13;;;2.60;;
12886;SDS011;6511;49.746;6.094;2023-05-14T03:26:53;3.67;;;2.50;;
12886;SDS011;6511;49.746;6.094;2023-05-14T03:29:18;4.77;;;3.07;;
12886;SDS011;6511;49.746;6.094;2023-05-14T03:31:44;3.83;;;2.60;;
12886;SDS011;6511;49.746;6.094;2023-05-14T03:34:10;3.87;;;2.97;;
12886;SDS011;6511;49.746;6.094;2023-05-14T03:36:35;4.23;;;2.70;;
12886;SDS011;6511;49.746;6.094;2023-05-14T03:39:02;4.20;;;2.80;;
12886;SDS011;6511;49.746;6.094;2023-05-14T03:41:30;3.22;;;2.60;;
12886;SDS011;6511;49.746;6.094;2023-05-14T03:43:56;3.95;;;2.65;;
12886;SDS011;6511;49.746;6.094;2023-05-14T03:46:22;3.47;;;2.60;;
12886;SDS011;6511;49.746;6.094;2023-05-14T03:48:48;3.80;;;2.40;;
12886;SDS011;6511;49.746;6.094;2023-05-14T03:51:13;3.08;;;2.30;;
12886;SDS011;6511;49.746;6.094;2023-05-14T03:53:39;3.77;;;2.50;;
12886;SDS011;6511;49.746;6.094;2023-05-14T03:56:05;3.40;;;2.42;;
12886;SDS011;6511;49.746;6.094;2023-05-14T03:58:31;3.97;;;2.60;;
12886;SDS011;6511;49.746;6.094;2023-05-14T04:00:56;3.38;;;2.38;;
12886;SDS011;6511;49.746;6.094;2023-05-14T04:03:22;3.70;;;2.60;;
12886;SDS011;6511;49.746;6.094;2023-05-14T04:05:47;2.80;;;2.33;;
12886;SDS011;6511;49.746;6.094;2023-05-14T04:08:13;3.08;;;2.38;;
12886;SDS011;6511;49.746;6.094;2023-05-14T04:10:38;3.60;;;2.60;;
12886;SDS011;6511;49.746;6.094;2023-05-14T04:13:04;3.50;;;2.30;;
12886;SDS011;6511;49.746;6.094;2023-05-14T04:15:30;3.10;;;2.27;;
12886;SDS011;6511;49.746;6.094;2023-05-14T04:17:55;4.30;;;2.10;;
12886;SDS011;6511;49.746;6.094;2023-05-14T04:20:21;2.90;;;2.15;;
12886;SDS011;6511;49.746;6.094;2023-05-14T04:22:47;2.80;;;2.00;;
12886;SDS011;6511;49.746;6.094;2023-05-14T04:25:12;3.87;;;2.23;;
12886;SDS011;6511;49.746;6.094;2023-05-14T04:27:38;3.20;;;2.38;;
12886;SDS011;6511;49.746;6.094;2023-05-14T04:30:04;3.45;;;2.50;;
12886;SDS011;6511;49.746;6.094;2023-05-14T04:32:32;3.03;;;2.40;;
12886;SDS011;6511;49.746;6.094;2023-05-14T04:34:58;3.10;;;2.30;;
12886;SDS011;6511;49.746;6.094;2023-05-14T04:37:23;3.23;;;2.53;;
12886;SDS011;6511;49.746;6.094;2023-05-14T04:39:50;3.40;;;2.55;;
12886;SDS011;6511;49.746;6.094;2023-05-14T04:42:15;3.13;;;2.20;;
12886;SDS011;6511;49.746;6.094;2023-05-14T04:44:41;3.00;;;2.50;;
12886;SDS011;6511;49.746;6.094;2023-05-14T04:47:06;2.77;;;2.33;;
12886;SDS011;6511;49.746;6.094;2023-05-14T04:49:32;3.13;;;2.30;;
12886;SDS011;6511;49.746;6.094;2023-05-14T04:51:57;3.50;;;2.40;;
12886;SDS011;6511;49.746;6.094;2023-05-14T04:54:23;3.10;;;2.53;;
12886;SDS011;6511;49.746;6.094;2023-05-14T04:56:49;3.20;;;2.30;;
12886;SDS011;6511;49.746;6.094;2023-05-14T04:59:15;2.53;;;2.22;;
12886;SDS011;6511;49.746;6.094;2023-05-14T05:01:40;3.57;;;2.57;;
12886;SDS011;6511;49.746;6.094;2023-05-14T05:04:06;2.35;;;2.10;;
12886;SDS011;6511;49.746;6.094;2023-05-14T05:06:31;2.90;;;2.60;;
12886;SDS011;6511;49.746;6.094;2023-05-14T05:08:57;3.47;;;2.40;;
12886;SDS011;6511;49.746;6.094;2023-05-14T05:11:23;4.03;;;2.72;;
12886;SDS011;6511;49.746;6.094;2023-05-14T05:13:48;4.40;;;2.40;;
12886;SDS011;6511;49.746;6.094;2023-05-14T05:16:14;3.45;;;2.65;;
12886;SDS011;6511;49.746;6.094;2023-05-14T05:18:40;3.40;;;2.60;;
12886;SDS011;6511;49.746;6.094;2023-05-14T05:21:05;3.37;;;2.60;;
12886;SDS011;6511;49.746;6.094;2023-05-14T05:23:31;3.10;;;2.75;;
12886;SDS011;6511;49.746;6.094;2023-05-14T05:25:57;3.40;;;2.53;;
12886;SDS011;6511;49.746;6.094;2023-05-14T05:28:22;3.73;;;2.83;;
12886;SDS011;6511;49.746;6.094;2023-05-14T05:30:48;3.65;;;2.80;;
12886;SDS011;6511;49.746;6.094;2023-05-14T05:33:13;3.97;;;2.90;;
12886;SDS011;6511;49.746;6.094;2023-05-14T05:35:39;4.03;;;3.07;;
12886;SDS011;6511;49.746;6.094;2023-05-14T05:38:05;3.85;;;2.75;;
12886;SDS011;6511;49.746;6.094;2023-05-14T05:40:31;3.85;;;2.80;;
12886;SDS011;6511;49.746;6.094;2023-05-14T05:42:57;4.30;;;2.88;;
12886;SDS011;6511;49.746;6.094;2023-05-14T05:45:23;3.33;;;2.60;;
12886;SDS011;6511;49.746;6.094;2023-05-14T05:47:48;4.77;;;3.20;;
12886;SDS011;6511;49.746;6.094;2023-05-14T05:50:14;3.70;;;3.10;;
12886;SDS011;6511;49.746;6.094;2023-05-14T05:52:40;3.65;;;3.13;;
12886;SDS011;6511;49.746;6.094;2023-05-14T05:55:05;4.63;;;3.27;;
12886;SDS011;6511;49.746;6.094;2023-05-14T05:57:31;4.10;;;3.25;;
12886;SDS011;6511;49.746;6.094;2023-05-14T05:59:57;4.37;;;3.17;;
12886;SDS011;6511;49.746;6.094;2023-05-14T06:02:23;4.33;;;3.60;;
12886;SDS011;6511;49.746;6.094;2023-05-14T06:04:49;5.55;;;3.97;;
12886;SDS011;6511;49.746;6.094;2023-05-14T06:07:14;5.25;;;3.80;;
12886;SDS011;6511;49.746;6.094;2023-05-14T06:09:40;5.30;;;4.10;;
12886;SDS011;6511;49.746;6.094;2023-05-14T06:12:06;5.97;;;4.20;;
12886;SDS011;6511;49.746;6.094;2023-05-14T06:14:31;6.75;;;4.32;;
12886;SDS011;6511;49.746;6.094;2023-05-14T06:16:57;4.60;;;4.10;;
12886;SDS011;6511;49.746;6.094;2023-05-14T06:19:23;5.23;;;4.10;;
12886;SDS011;6511;49.746;6.094;2023-05-14T06:21:48;5.32;;;4.10;;
12886;SDS011;6511;49.746;6.094;2023-05-14T06:24:14;5.53;;;4.32;;
12886;SDS011;6511;49.746;6.094;2023-05-14T06:26:40;5.95;;;4.10;;
12886;SDS011;6511;49.746;6.094;2023-05-14T06:29:06;5.57;;;4.27;;
12886;SDS011;6511;49.746;6.094;2023-05-14T06:31:31;5.32;;;4.10;;
12886;SDS011;6511;49.746;6.094;2023-05-14T06:33:57;4.90;;;4.07;;
12886;SDS011;6511;49.746;6.094;2023-05-14T06:36:23;5.90;;;4.37;;
12886;SDS011;6511;49.746;6.094;2023-05-14T06:38:48;5.00;;;4.40;;
12886;SDS011;6511;49.746;6.094;2023-05-14T06:41:14;5.82;;;4.40;;
12886;SDS011;6511;49.746;6.094;2023-05-14T06:43:40;6.00;;;4.70;;
12886;SDS011;6511;49.746;6.094;2023-05-14T06:46:06;5.25;;;4.75;;
12886;SDS011;6511;49.746;6.094;2023-05-14T06:48:31;6.35;;;4.55;;
12886;SDS011;6511;49.746;6.094;2023-05-14T06:50:57;6.20;;;4.50;;
12886;SDS011;6511;49.746;6.094;2023-05-14T06:53:22;5.47;;;4.57;;
12886;SDS011;6511;49.746;6.094;2023-05-14T06:55:48;6.10;;;4.38;;
12886;SDS011;6511;49.746;6.094;2023-05-14T06:58:14;4.93;;;4.13;;
12886;SDS011;6511;49.746;6.094;2023-05-14T07:00:40;6.15;;;4.32;;
12886;SDS011;6511;49.746;6.094;2023-05-14T07:03:05;4.67;;;4.00;;
12886;SDS011;6511;49.746;6.094;2023-05-14T07:05:31;5.07;;;4.00;;
12886;SDS011;6511;49.746;6.094;2023-05-14T07:07:57;4.03;;;3.58;;
12886;SDS011;6511;49.746;6.094;2023-05-14T07:10:22;4.82;;;3.78;;
12886;SDS011;6511;49.746;6.094;2023-05-14T07:12:48;4.38;;;3.83;;
12886;SDS011;6511;49.746;6.094;2023-05-14T07:15:14;4.95;;;3.97;;
12886;SDS011;6511;49.746;6.094;2023-05-14T07:17:40;4.30;;;3.67;;
12886;SDS011;6511;49.746;6.094;2023-05-14T07:20:05;6.23;;;4.23;;
12886;SDS011;6511;49.746;6.094;2023-05-14T07:22:31;5.00;;;3.95;;
12886;SDS011;6511;49.746;6.094;2023-05-14T07:24:57;4.93;;;4.00;;
12886;SDS011;6511;49.746;6.094;2023-05-14T07:27:23;5.53;;;3.90;;
12886;SDS011;6511;49.746;6.094;2023-05-14T07:29:49;4.60;;;3.50;;
12886;SDS011;6511;49.746;6.094;2023-05-14T07:32:15;3.90;;;3.50;;
12886;SDS011;6511;49.746;6.094;2023-05-14T07:34:40;4.13;;;3.53;;
12886;SDS011;6511;49.746;6.094;2023-05-14T07:37:06;3.60;;;3.20;;
12886;SDS011;6511;49.746;6.094;2023-05-14T07:39:32;4.97;;;3.75;;
12886;SDS011;6511;49.746;6.094;2023-05-14T07:41:57;3.20;;;2.80;;
12886;SDS011;6511;49.746;6.094;2023-05-14T07:44:24;3.60;;;3.10;;
12886;SDS011;6511;49.746;6.094;2023-05-14T07:46:49;2.83;;;2.40;;
12886;SDS011;6511;49.746;6.094;2023-05-14T07:49:15;5.10;;;2.93;;
12886;SDS011;6511;49.746;6.094;2023-05-14T07:51:41;3.33;;;2.72;;
12886;SDS011;6511;49.746;6.094;2023-05-14T07:54:06;4.53;;;3.03;;
12886;SDS011;6511;49.746;6.094;2023-05-14T07:56:32;3.23;;;2.93;;
12886;SDS011;6511;49.746;6.094;2023-05-14T07:58:57;4.53;;;3.10;;
12886;SDS011;6511;49.746;6.094;2023-05-14T08:01:23;3.87;;;2.87;;
12886;SDS011;6511;49.746;6.094;2023-05-14T08:03:49;3.45;;;2.70;;
12886;SDS011;6511;49.746;6.094;2023-05-14T08:06:14;2.90;;;2.50;;
12886;SDS011;6511;49.746;6.094;2023-05-14T08:08:40;2.87;;;2.60;;
12886;SDS011;6511;49.746;6.094;2023-05-14T08:11:06;3.67;;;2.60;;
12886;SDS011;6511;49.746;6.094;2023-05-14T08:13:31;3.15;;;2.80;;
12886;SDS011;6511;49.746;6.094;2023-05-14T08:15:57;4.17;;;3.00;;
12886;SDS011;6511;49.746;6.094;2023-05-14T08:18:23;3.93;;;2.73;;
12886;SDS011;6511;49.746;6.094;2023-05-14T08:20:48;3.23;;;2.70;;
12886;SDS011;6511;49.746;6.094;2023-05-14T08:23:14;3.67;;;2.60;;
12886;SDS011;6511;49.746;6.094;2023-05-14T08:25:40;3.40;;;2.75;;
12886;SDS011;6511;49.746;6.094;2023-05-14T08:28:05;3.47;;;2.60;;
12886;SDS011;6511;49.746;6.094;2023-05-14T08:30:31;3.30;;;2.80;;
12886;SDS011;6511;49.746;6.094;2023-05-14T08:32:57;4.80;;;3.00;;
12886;SDS011;6511;49.746;6.094;2023-05-14T08:35:23;4.20;;;2.80;;
12886;SDS011;6511;49.746;6.094;2023-05-14T08:37:48;3.00;;;2.70;;
12886;SDS011;6511;49.746;6.094;2023-05-14T08:40:14;3.78;;;2.60;;
12886;SDS011;6511;49.746;6.094;2023-05-14T08:42:40;3.20;;;2.60;;
12886;SDS011;6511;49.746;6.094;2023-05-14T08:45:07;14.07;;;9.07;;
12886;SDS011;6511;49.746;6.094;2023-05-14T08:47:49;3.00;;;2.70;;
12886;SDS011;6511;49.746;6.094;2023-05-14T08:50:16;2.70;;;2.47;;
12886;SDS011;6511;49.746;6.094;2023-05-14T08:52:42;2.90;;;2.60;;
12886;SDS011;6511;49.746;6.094;2023-05-14T08:55:08;2.47;;;2.22;;
12886;SDS011;6511;49.746;6.094;2023-05-14T08:57:35;2.35;;;2.15;;
12886;SDS011;6511;49.746;6.094;2023-05-14T09:00:01;2.33;;;2.13;;
12886;SDS011;6511;49.746;6.094;2023-05-14T09:02:38;2.70;;;2.20;;
12886;SDS011;6511;49.746;6.094;2023-05-14T09:05:05;2.67;;;2.35;;
12886;SDS011;6511;49.746;6.094;2023-05-14T09:07:34;2.55;;;2.20;;
12886;SDS011;6511;49.746;6.094;2023-05-14T09:10:00;2.30;;;2.10;;
12886;SDS011;6511;49.746;6.094;2023-05-14T09:12:26;2.30;;;2.10;;
12886;SDS011;6511;49.746;6.094;2023-05-14T09:14:52;2.35;;;2.15;;
12886;SDS011;6511;49.746;6.094;2023-05-14T09:17:18;2.20;;;2.00;;
12886;SDS011;6511;49.746;6.094;2023-05-14T09:19:44;2.23;;;2.03;;
12886;SDS011;6511;49.746;6.094;2023-05-14T09:22:14;2.25;;;2.03;;
12886;SDS011;6511;49.746;6.094;2023-05-14T09:24:41;2.22;;;2.03;;
12886;SDS011;6511;49.746;6.094;2023-05-14T09:27:08;2.65;;;2.10;;
12886;SDS011;6511;49.746;6.094;2023-05-14T09:29:39;2.00;;;1.80;;
12886;SDS011;6511;49.746;6.094;2023-05-14T09:32:04;2.75;;;2.00;;
12886;SDS011;6511;49.746;6.094;2023-05-14T09:34:31;2.35;;;2.08;;
12886;SDS011;6511;49.746;6.094;2023-05-14T09:37:00;2.10;;;1.90;;
12886;SDS011;6511;49.746;6.094;2023-05-14T09:39:28;2.40;;;1.90;;
12886;SDS011;6511;49.746;6.094;2023-05-14T09:41:54;2.13;;;1.80;;
12886;SDS011;6511;49.746;6.094;2023-05-14T09:44:21;1.85;;;1.75;;
12886;SDS011;6511;49.746;6.094;2023-05-14T09:46:47;2.20;;;1.85;;
12886;SDS011;6511;49.746;6.094;2023-05-14T09:49:13;2.35;;;2.00;;
12886;SDS011;6511;49.746;6.094;2023-05-14T09:51:39;2.17;;;1.80;;
12886;SDS011;6511;49.746;6.094;2023-05-14T09:54:05;1.95;;;1.83;;
12886;SDS011;6511;49.746;6.094;2023-05-14T09:56:32;2.00;;;1.80;;
12886;SDS011;6511;49.746;6.094;2023-05-14T09:58:58;3.22;;;1.88;;
12886;SDS011;6511;49.746;6.094;2023-05-14T10:01:24;2.30;;;1.88;;
12886;SDS011;6511;49.746;6.094;2023-05-14T10:03:51;2.55;;;2.05;;
12886;SDS011;6511;49.746;6.094;2023-05-14T10:06:19;2.20;;;1.80;;
12886;SDS011;6511;49.746;6.094;2023-05-14T10:08:49;1.90;;;1.75;;
12886;SDS011;6511;49.746;6.094;2023-05-14T10:11:21;2.17;;;1.98;;
12886;SDS011;6511;49.746;6.094;2023-05-14T10:16:26;1.75;;;1.65;;
12886;SDS011;6511;49.746;6.094;2023-05-14T10:18:55;2.40;;;1.98;;
12886;SDS011;6511;49.746;6.094;2023-05-14T10:21:25;2.10;;;1.90;;
12886;SDS011;6511;49.746;6.094;2023-05-14T10:23:53;2.15;;;1.92;;
12886;SDS011;6511;49.746;6.094;2023-05-14T10:26:19;5.75;;;3.85;;
12886;SDS011;6511;49.746;6.094;2023-05-14T10:28:45;3.10;;;2.37;;
12886;SDS011;6511;49.746;6.094;2023-05-14T10:31:12;2.03;;;1.88;;
12886;SDS011;6511;49.746;6.094;2023-05-14T10:33:48;2.03;;;1.85;;
12886;SDS011;6511;49.746;6.094;2023-05-14T10:36:14;1.88;;;1.70;;
12886;SDS011;6511;49.746;6.094;2023-05-14T10:38:44;2.05;;;1.90;;
12886;SDS011;6511;49.746;6.094;2023-05-14T10:41:11;1.80;;;1.70;;
12886;SDS011;6511;49.746;6.094;2023-05-14T10:43:40;1.83;;;1.70;;
12886;SDS011;6511;49.746;6.094;2023-05-14T10:46:07;2.22;;;1.70;;
12886;SDS011;6511;49.746;6.094;2023-05-14T10:48:36;1.90;;;1.70;;
12886;SDS011;6511;49.746;6.094;2023-05-14T10:51:03;1.60;;;1.50;;
12886;SDS011;6511;49.746;6.094;2023-05-14T10:56:01;1.63;;;1.52;;
12886;SDS011;6511;49.746;6.094;2023-05-14T10:58:31;2.10;;;1.88;;
12886;SDS011;6511;49.746;6.094;2023-05-14T11:01:00;2.13;;;1.92;;
12886;SDS011;6511;49.746;6.094;2023-05-14T11:03:29;2.10;;;1.80;;
12886;SDS011;6511;49.746;6.094;2023-05-14T11:06:01;1.90;;;1.70;;
12886;SDS011;6511;49.746;6.094;2023-05-14T11:08:28;2.10;;;1.90;;
12886;SDS011;6511;49.746;6.094;2023-05-14T11:10:54;2.00;;;1.80;;
12886;SDS011;6511;49.746;6.094;2023-05-14T11:13:21;2.05;;;1.77;;
12886;SDS011;6511;49.746;6.094;2023-05-14T11:15:46;1.83;;;1.73;;
12886;SDS011;6511;49.746;6.094;2023-05-14T11:18:13;1.85;;;1.73;;
12886;SDS011;6511;49.746;6.094;2023-05-14T11:20:57;2.07;;;1.70;;
12886;SDS011;6511;49.746;6.094;2023-05-14T11:23:26;1.85;;;1.75;;
12886;SDS011;6511;49.746;6.094;2023-05-14T11:25:52;1.98;;;1.80;;
12886;SDS011;6511;49.746;6.094;2023-05-14T11:28:19;2.05;;;1.80;;
12886;SDS011;6511;49.746;6.094;2023-05-14T11:30:46;2.60;;;1.70;;
12886;SDS011;6511;49.746;6.094;2023-05-14T11:33:13;1.83;;;1.70;;
12886;SDS011;6511;49.746;6.094;2023-05-14T11:35:39;1.70;;;1.60;;
12886;SDS011;6511;49.746;6.094;2023-05-14T11:38:06;1.55;;;1.45;;
12886;SDS011;6511;49.746;6.094;2023-05-14T11:40:38;1.70;;;1.60;;
12886;SDS011;6511;49.746;6.094;2023-05-14T11:43:04;2.30;;;1.92;;
12886;SDS011;6511;49.746;6.094;2023-05-14T11:45:29;1.67;;;1.58;;
12886;SDS011;6511;49.746;6.094;2023-05-14T11:47:56;2.33;;;1.60;;
12886;SDS011;6511;49.746;6.094;2023-05-14T11:50:22;1.58;;;1.48;;
12886;SDS011;6511;49.746;6.094;2023-05-14T11:52:48;1.70;;;1.60;;
12886;SDS011;6511;49.746;6.094;2023-05-14T11:55:14;1.80;;;1.70;;
12886;SDS011;6511;49.746;6.094;2023-05-14T11:57:41;1.70;;;1.60;;
12886;SDS011;6511;49.746;6.094;2023-05-14T12:00:07;1.90;;;1.58;;
12886;SDS011;6511;49.746;6.094;2023-05-14T12:02:34;1.50;;;1.40;;
12886;SDS011;6511;49.746;6.094;2023-05-14T12:05:01;1.70;;;1.55;;
12886;SDS011;6511;49.746;6.094;2023-05-14T12:07:27;1.95;;;1.40;;
12886;SDS011;6511;49.746;6.094;2023-05-14T12:09:54;2.08;;;1.70;;
12886;SDS011;6511;49.746;6.094;2023-05-14T12:12:25;3.50;;;2.85;;
12886;SDS011;6511;49.746;6.094;2023-05-14T12:14:51;3.53;;;3.03;;
12886;SDS011;6511;49.746;6.094;2023-05-14T12:17:17;5.72;;;3.67;;
12886;SDS011;6511;49.746;6.094;2023-05-14T12:19:45;5.38;;;3.83;;
12886;SDS011;6511;49.746;6.094;2023-05-14T12:22:23;7.32;;;4.20;;
12886;SDS011;6511;49.746;6.094;2023-05-14T12:24:56;5.75;;;4.00;;
12886;SDS011;6511;49.746;6.094;2023-05-14T12:27:23;5.03;;;3.58;;
12886;SDS011;6511;49.746;6.094;2023-05-14T12:29:57;6.10;;;3.47;;
12886;SDS011;6511;49.746;6.094;2023-05-14T12:32:27;5.60;;;3.40;;
12886;SDS011;6511;49.746;6.094;2023-05-14T12:34:56;3.65;;;3.10;;
12886;SDS011;6511;49.746;6.094;2023-05-14T12:37:22;3.77;;;3.17;;
12886;SDS011;6511;49.746;6.094;2023-05-14T12:39:47;3.70;;;2.80;;
12886;SDS011;6511;49.746;6.094;2023-05-14T12:42:13;3.43;;;2.77;;
12886;SDS011;6511;49.746;6.094;2023-05-14T12:44:40;3.43;;;2.60;;
12886;SDS011;6511;49.746;6.094;2023-05-14T12:47:06;5.05;;;3.60;;
12886;SDS011;6511;49.746;6.094;2023-05-14T12:49:31;4.13;;;3.38;;
12886;SDS011;6511;49.746;6.094;2023-05-14T12:51:57;5.67;;;3.50;;
12886;SDS011;6511;49.746;6.094;2023-05-14T12:54:22;4.10;;;3.27;;
12886;SDS011;6511;49.746;6.094;2023-05-14T12:56:48;4.70;;;3.30;;
12886;SDS011;6511;49.746;6.094;2023-05-14T12:59:14;4.30;;;3.17;;
12886;SDS011;6511;49.746;6.094;2023-05-14T13:01:40;3.92;;;3.15;;
12886;SDS011;6511;49.746;6.094;2023-05-14T13:04:06;3.93;;;3.13;;
12886;SDS011;6511;49.746;6.094;2023-05-14T13:06:33;4.80;;;3.30;;
12886;SDS011;6511;49.746;6.094;2023-05-14T13:08:58;4.78;;;3.30;;
12886;SDS011;6511;49.746;6.094;2023-05-14T13:11:26;4.95;;;3.70;;
12886;SDS011;6511;49.746;6.094;2023-05-14T13:13:54;4.93;;;3.45;;
12886;SDS011;6511;49.746;6.094;2023-05-14T13:16:19;4.78;;;3.25;;
12886;SDS011;6511;49.746;6.094;2023-05-14T13:18:45;4.30;;;3.20;;
12886;SDS011;6511;49.746;6.094;2023-05-14T13:21:11;4.30;;;3.23;;
12886;SDS011;6511;49.746;6.094;2023-05-14T13:23:36;4.40;;;3.30;;
12886;SDS011;6511;49.746;6.094;2023-05-14T13:26:02;3.93;;;3.07;;
12886;SDS011;6511;49.746;6.094;2023-05-14T13:28:28;3.80;;;2.70;;
12886;SDS011;6511;49.746;6.094;2023-05-14T13:31:03;3.97;;;2.92;;
12886;SDS011;6511;49.746;6.094;2023-05-14T13:33:33;4.68;;;3.53;;
12886;SDS011;6511;49.746;6.094;2023-05-14T13:36:05;4.82;;;3.22;;
12886;SDS011;6511;49.746;6.094;2023-05-14T13:38:32;3.30;;;2.60;;
12886;SDS011;6511;49.746;6.094;2023-05-14T13:40:57;2.22;;;2.00;;
12886;SDS011;6511;49.746;6.094;2023-05-14T13:43:26;1.87;;;1.67;;
12886;SDS011;6511;49.746;6.094;2023-05-14T13:45:53;1.35;;;1.20;;
12886;SDS011;6511;49.746;6.094;2023-05-14T13:48:18;2.08;;;1.48;;
12886;SDS011;6511;49.746;6.094;2023-05-14T13:50:44;1.40;;;1.30;;
12886;SDS011;6511;49.746;6.094;2023-05-14T13:53:10;1.47;;;1.37;;
12886;SDS011;6511;49.746;6.094;2023-05-14T13:55:35;1.40;;;1.23;;
12886;SDS011;6511;49.746;6.094;2023-05-14T13:58:01;1.30;;;1.20;;
12886;SDS011;6511;49.746;6.094;2023-05-14T14:00:27;2.13;;;1.90;;
12886;SDS011;6511;49.746;6.094;2023-05-14T14:02:53;2.20;;;2.00;;
12886;SDS011;6511;49.746;6.094;2023-05-14T14:05:18;2.00;;;1.80;;
12886;SDS011;6511;49.746;6.094;2023-05-14T14:07:44;2.30;;;1.93;;
12886;SDS011;6511;49.746;6.094;2023-05-14T14:10:11;2.40;;;2.03;;
12886;SDS011;6511;49.746;6.094;2023-05-14T14:12:37;2.92;;;2.05;;
12886;SDS011;6511;49.746;6.094;2023-05-14T14:15:03;2.17;;;1.98;;
12886;SDS011;6511;49.746;6.094;2023-05-14T14:17:29;1.80;;;1.70;;
12886;SDS011;6511;49.746;6.094;2023-05-14T14:19:55;1.70;;;1.40;;
12886;SDS011;6511;49.746;6.094;2023-05-14T14:22:20;1.40;;;1.30;;
12886;SDS011;6511;49.746;6.094;2023-05-14T14:24:46;1.40;;;1.30;;
12886;SDS011;6511;49.746;6.094;2023-05-14T14:27:11;1.40;;;1.30;;
12886;SDS011;6511;49.746;6.094;2023-05-14T14:29:37;1.43;;;1.33;;
12886;SDS011;6511;49.746;6.094;2023-05-14T14:32:02;1.40;;;1.30;;
12886;SDS011;6511;49.746;6.094;2023-05-14T14:34:28;1.60;;;1.20;;
12886;SDS011;6511;49.746;6.094;2023-05-14T14:36:54;1.60;;;1.40;;
12886;SDS011;6511;49.746;6.094;2023-05-14T14:39:19;1.80;;;1.35;;
12886;SDS011;6511;49.746;6.094;2023-05-14T14:41:45;1.45;;;1.35;;
12886;SDS011;6511;49.746;6.094;2023-05-14T14:44:11;1.63;;;1.52;;
12886;SDS011;6511;49.746;6.094;2023-05-14T14:46:37;1.90;;;1.40;;
12886;SDS011;6511;49.746;6.094;2023-05-14T14:49:02;1.77;;;1.55;;
12886;SDS011;6511;49.746;6.094;2023-05-14T14:51:28;1.60;;;1.50;;
12886;SDS011;6511;49.746;6.094;2023-05-14T14:53:55;2.03;;;1.60;;
12886;SDS011;6511;49.746;6.094;2023-05-14T14:56:20;1.77;;;1.50;;
12886;SDS011;6511;49.746;6.094;2023-05-14T14:58:46;2.43;;;2.10;;
12886;SDS011;6511;49.746;6.094;2023-05-14T15:01:12;1.77;;;1.65;;
12886;SDS011;6511;49.746;6.094;2023-05-14T15:03:37;2.78;;;1.90;;
12886;SDS011;6511;49.746;6.094;2023-05-14T15:06:03;2.10;;;1.90;;
12886;SDS011;6511;49.746;6.094;2023-05-14T15:08:29;3.47;;;2.05;;